Terminal Aerodrome Forecast
Issued by NWS

Home | Current Version | Previous Version | Text Only | Print | Product List | Glossary On
Versions: 1 2 3 4 5 6 7 8 9 10 11 12 13 14 15
000
FTUS43 KGRB 301700
TAFCWA
TAF
KCWA 301720Z 3018/3118 30010KT P6SM SCT070 BKN250
     FM302100 24004KT P6SM SCT050 BKN100
      TEMPO 3022/3102 5SM -RA BKN020
     FM310200 12003KT 5SM -RA BR SCT006 OVC012
      TEMPO 3104/3107 2SM -SN BKN006
     FM310700 07005KT P6SM SCT006 OVC015
      TEMPO 3107/3109 3SM -SN BKN006
     FM311200 24007KT P6SM BKN015=

USA.gov is the U.S. government's official web portal to all federal, state and local government web resources and services.